createdAt,value
2023-04-17T00:01:04.060Z,101038.45
2023-04-17T00:06:10.004Z,101038.00
2023-04-17T00:11:18.000Z,101034.77
2023-04-17T00:16:24.319Z,101029.75
2023-04-17T00:21:30.037Z,101032.73
2023-04-17T00:26:35.673Z,101032.41
2023-04-17T00:31:41.615Z,101039.91
2023-04-17T00:36:47.042Z,101042.67
2023-04-17T00:41:52.543Z,101045.09
2023-04-17T00:46:57.951Z,101045.55
2023-04-17T00:52:03.986Z,101044.46
2023-04-17T00:57:09.909Z,101043.11
2023-04-17T01:02:16.744Z,101055.98
2023-04-17T01:07:22.568Z,101058.42
2023-04-17T01:12:28.012Z,101059.27
2023-04-17T01:17:33.594Z,101055.82
2023-04-17T01:22:39.524Z,101056.87
2023-04-17T01:27:44.935Z,101060.15
2023-04-17T01:32:50.848Z,101062.56
2023-04-17T01:37:56.891Z,101059.29
2023-04-17T01:43:02.355Z,101060.66
2023-04-17T01:48:08.710Z,101056.52
2023-04-17T01:53:14.126Z,101060.15
2023-04-17T01:58:19.987Z,101062.92
2023-04-17T02:03:25.993Z,101063.62
2023-04-17T02:08:31.550Z,101065.69
2023-04-17T02:13:38.254Z,101063.59
2023-04-17T02:18:43.770Z,101064.63
2023-04-17T02:23:49.261Z,101062.91
2023-04-17T02:28:54.949Z,101066.39
2023-04-17T02:34:00.872Z,101070.34
2023-04-17T02:39:07.438Z,101068.45
2023-04-17T02:44:12.943Z,101070.40
2023-04-17T02:49:18.548Z,101071.29
2023-04-17T02:54:24.174Z,101072.48
2023-04-17T02:59:30.314Z,101076.48
2023-04-17T03:04:38.804Z,101078.42
2023-04-17T03:09:45.787Z,101082.44
2023-04-17T03:14:52.466Z,101081.91
2023-04-17T03:19:57.911Z,101091.77
2023-04-17T03:25:03.393Z,101094.55
2023-04-17T03:30:15.816Z,101101.11
2023-04-17T03:35:25.200Z,101105.23
2023-04-17T03:40:33.209Z,101105.22
2023-04-17T03:45:39.726Z,101105.90
2023-04-17T03:50:45.387Z,101115.58
2023-04-17T03:55:51.216Z,101116.76
2023-04-17T04:01:04.123Z,101114.47
2023-04-17T04:06:13.235Z,101118.95
2023-04-17T04:11:18.855Z,101128.61
2023-04-17T04:16:24.461Z,101137.21
2023-04-17T04:21:31.820Z,101144.45
2023-04-17T04:26:41.001Z,101147.89
2023-04-17T04:31:46.920Z,101149.61
2023-04-17T04:36:52.828Z,101154.44
2023-04-17T04:42:29.431Z,101154.75
2023-04-17T04:47:44.547Z,101158.05
2023-04-17T04:52:50.864Z,101157.33
2023-04-17T04:58:11.108Z,101157.81
2023-04-17T05:03:17.588Z,101158.80
2023-04-17T05:08:24.671Z,101156.18
2023-04-17T05:13:39.272Z,101161.51
2023-04-17T05:18:48.369Z,101164.06
2023-04-17T05:23:56.929Z,101164.01
2023-04-17T05:29:02.350Z,101170.52
2023-04-17T05:34:10.344Z,101173.25
2023-04-17T05:39:16.775Z,101170.20
2023-04-17T05:44:22.578Z,101172.83
2023-04-17T05:49:28.528Z,101173.20
2023-04-17T05:54:34.145Z,101183.79
2023-04-17T05:59:40.365Z,101191.86
2023-04-17T06:04:48.056Z,101190.27
2023-04-17T06:09:53.581Z,101190.77
2023-04-17T06:14:59.627Z,101193.52
2023-04-17T06:20:11.765Z,101190.79
2023-04-17T06:25:18.131Z,101185.33
2023-04-17T06:30:24.012Z,101190.45
2023-04-17T06:35:31.843Z,101189.77
2023-04-17T06:40:43.505Z,101191.64
2023-04-17T06:45:49.918Z,101194.63
2023-04-17T06:50:55.360Z,101195.56
2023-04-17T06:56:00.846Z,101197.43
2023-04-17T07:01:06.640Z,101201.86
2023-04-17T07:06:12.391Z,101206.73
2023-04-17T07:11:17.957Z,101206.70
2023-04-17T07:16:23.619Z,101211.90
2023-04-17T07:21:29.272Z,101219.57
2023-04-17T07:26:37.532Z,101223.91
2023-04-17T07:31:43.032Z,101229.07
2023-04-17T07:36:50.287Z,101237.99
2023-04-17T07:41:56.851Z,101240.64
2023-04-17T07:47:02.477Z,101242.52
2023-04-17T07:52:08.824Z,101246.60
2023-04-17T07:57:15.554Z,101249.81
2023-04-17T08:02:22.753Z,101250.17
2023-04-17T08:07:28.770Z,101246.10
2023-04-17T08:12:34.288Z,101251.02
2023-04-17T08:17:41.440Z,101257.07
2023-04-17T08:22:47.660Z,101264.10
2023-04-17T08:27:53.230Z,101261.16
2023-04-17T08:32:58.877Z,101268.95
2023-04-17T08:38:04.400Z,101275.54
2023-04-17T08:43:16.447Z,101276.55
2023-04-17T08:48:22.950Z,101275.37
2023-04-17T08:53:28.582Z,101273.52
2023-04-17T08:58:35.800Z,101270.13
2023-04-17T09:03:43.521Z,101269.84
2023-04-17T09:09:00.714Z,101281.85
2023-04-17T09:14:06.358Z,101285.44
2023-04-17T09:19:12.106Z,101285.77
2023-04-17T09:24:32.099Z,101285.02
2023-04-17T09:29:58.060Z,101293.83
2023-04-17T09:35:06.153Z,101294.89
2023-04-17T09:40:12.776Z,101291.77
2023-04-17T09:45:24.464Z,101289.92
2023-04-17T09:50:32.428Z,101288.88
2023-04-17T09:55:41.696Z,101285.18
2023-04-17T10:00:48.250Z,101291.59
2023-04-17T10:05:54.271Z,101282.09
2023-04-17T10:11:07.274Z,101279.13
2023-04-17T10:16:13.111Z,101286.21
2023-04-17T10:21:24.265Z,101285.23
2023-04-17T10:26:37.975Z,101283.74
2023-04-17T10:32:26.562Z,101283.06
2023-04-17T10:37:59.423Z,101281.86
2023-04-17T10:43:07.530Z,101274.25
2023-04-17T10:48:26.521Z,101267.33
2023-04-17T10:53:42.798Z,101259.93
2023-04-17T10:58:59.721Z,101261.39
2023-04-17T11:04:06.287Z,101267.48
2023-04-17T11:09:12.268Z,101262.84
2023-04-17T11:14:19.999Z,101264.76
2023-04-17T11:19:26.616Z,101267.94
2023-04-17T11:24:32.801Z,101268.77
2023-04-17T11:29:38.210Z,101268.81
2023-04-17T11:34:44.056Z,101274.69
2023-04-17T11:39:49.480Z,101274.61
2023-04-17T11:45:07.719Z,101278.15
2023-04-17T11:50:16.750Z,101277.11
2023-04-17T11:55:22.845Z,101275.64
2023-04-17T12:00:30.162Z,101276.03
2023-04-17T12:05:36.409Z,101270.09
2023-04-17T12:10:45.559Z,101278.63
2023-04-17T12:15:51.067Z,101278.30
2023-04-17T12:20:56.701Z,101276.75
2023-04-17T12:26:02.085Z,101281.98
2023-04-17T12:31:07.915Z,101283.90
2023-04-17T12:36:13.543Z,101285.96
2023-04-17T12:41:20.091Z,101288.08
2023-04-17T12:46:26.090Z,101284.20
2023-04-17T12:51:37.476Z,101288.58
2023-04-17T12:56:42.976Z,101284.29
2023-04-17T13:01:48.695Z,101280.56
2023-04-17T13:06:54.056Z,101275.03
2023-04-17T13:11:59.530Z,101270.21
2023-04-17T13:17:06.359Z,101270.73
2023-04-17T13:22:12.297Z,101270.58
2023-04-17T13:27:17.654Z,101279.04
2023-04-17T13:32:23.398Z,101282.30
2023-04-17T13:37:28.919Z,101284.77
2023-04-17T13:42:34.381Z,101287.94
2023-04-17T13:47:40.454Z,101288.33
2023-04-17T13:52:46.008Z,101291.81
2023-04-17T13:57:51.722Z,101294.18
2023-04-17T14:02:57.536Z,101294.52
2023-04-17T14:08:03.182Z,101287.92
2023-04-17T14:13:09.651Z,101292.55
2023-04-17T14:18:15.700Z,101296.17
2023-04-17T14:23:21.155Z,101293.73
2023-04-17T14:28:26.963Z,101292.18
2023-04-17T14:33:32.723Z,101289.90
2023-04-17T14:38:38.479Z,101291.79
2023-04-17T14:43:44.681Z,101295.02
2023-04-17T14:48:55.284Z,101294.33
2023-04-17T14:54:01.525Z,101298.17
2023-04-17T14:59:07.093Z,101294.78
2023-04-17T15:04:12.635Z,101300.86
2023-04-17T15:09:18.398Z,101303.39
2023-04-17T15:14:23.980Z,101307.33
2023-04-17T15:19:29.535Z,101305.52
2023-04-17T15:24:36.004Z,101308.19
2023-04-17T15:29:41.346Z,101308.25
2023-04-17T15:34:47.420Z,101301.42
2023-04-17T15:39:52.864Z,101297.70
2023-04-17T15:44:58.529Z,101296.45
2023-04-17T15:50:06.524Z,101299.17
2023-04-17T15:55:12.512Z,101300.38
2023-04-17T16:00:19.460Z,101304.30
2023-04-17T16:05:24.960Z,101308.18
2023-04-17T16:10:30.944Z,101309.13
2023-04-17T16:15:36.593Z,101310.77
2023-04-17T16:20:42.284Z,101319.84
2023-04-17T16:25:50.264Z,101325.44
2023-04-17T16:30:56.393Z,101324.88
2023-04-17T16:36:02.300Z,101328.52
2023-04-17T16:41:08.197Z,101332.79
2023-04-17T16:46:23.853Z,101329.74
2023-04-17T16:51:34.235Z,101335.77
2023-04-17T16:56:40.413Z,101339.83
2023-04-17T17:01:47.285Z,101346.79
2023-04-17T17:06:52.829Z,101351.86
2023-04-17T17:11:58.323Z,101358.58
2023-04-17T17:17:03.764Z,101366.91
2023-04-17T17:22:09.914Z,101366.39
2023-04-17T17:27:15.627Z,101367.83
2023-04-17T17:32:21.481Z,101370.42
2023-04-17T17:37:27.687Z,101379.27
2023-04-17T17:42:33.596Z,101378.26
2023-04-17T17:47:40.624Z,101391.31
2023-04-17T17:52:46.826Z,101395.11
2023-04-17T17:57:52.242Z,101398.52
2023-04-17T18:02:57.927Z,101401.71
2023-04-17T18:08:03.796Z,101404.89
2023-04-17T18:13:09.550Z,101407.06
2023-04-17T18:18:15.341Z,101412.38
2023-04-17T18:23:21.370Z,101413.11
2023-04-17T18:28:27.497Z,101415.41
2023-04-17T18:33:33.709Z,101420.67
2023-04-17T18:38:39.522Z,101429.99
2023-04-17T18:43:44.939Z,101430.39
2023-04-17T18:48:50.725Z,101428.84
2023-04-17T18:53:56.482Z,101430.61
2023-04-17T18:59:02.516Z,101429.81
2023-04-17T19:04:08.303Z,101434.05
2023-04-17T19:09:14.100Z,101434.60
2023-04-17T19:14:19.770Z,101431.89
2023-04-17T19:19:25.644Z,101434.20
2023-04-17T19:24:32.296Z,101438.92
2023-04-17T19:29:38.341Z,101439.13
2023-04-17T19:34:44.432Z,101446.27
2023-04-17T19:39:51.592Z,101444.23
2023-04-17T19:45:00.129Z,101445.48
2023-04-17T19:50:06.700Z,101443.79
2023-04-17T19:55:12.955Z,101444.14
2023-04-17T20:00:19.398Z,101441.36
2023-04-17T20:05:25.353Z,101437.52
2023-04-17T20:10:30.970Z,101438.56
2023-04-17T20:15:36.335Z,101441.36
2023-04-17T20:20:41.787Z,101442.63
2023-04-17T20:25:47.312Z,101449.07
2023-04-17T20:30:52.871Z,101450.48
2023-04-17T20:35:58.930Z,101450.01
2023-04-17T20:41:04.608Z,101451.40
2023-04-17T20:46:10.360Z,101451.93
2023-04-17T20:51:18.273Z,101454.02
2023-04-17T20:56:24.280Z,101459.10
2023-04-17T21:01:29.834Z,101460.17
2023-04-17T21:06:35.619Z,101462.42
2023-04-17T21:11:41.670Z,101464.87
2023-04-17T21:16:47.113Z,101472.17
2023-04-17T21:21:53.425Z,101473.76
2023-04-17T21:27:01.013Z,101476.36
2023-04-17T21:32:07.297Z,101484.05
2023-04-17T21:37:12.647Z,101481.83
2023-04-17T21:42:18.103Z,101477.85
2023-04-17T21:47:23.537Z,101476.99
2023-04-17T21:52:29.290Z,101477.51
2023-04-17T21:57:35.850Z,101479.07
2023-04-17T22:02:41.506Z,101480.11
2023-04-17T22:07:54.352Z,101483.45
2023-04-17T22:13:01.204Z,101483.33
2023-04-17T22:18:07.414Z,101479.88
2023-04-17T22:23:12.992Z,101481.27
2023-04-17T22:28:18.774Z,101480.77
2023-04-17T22:33:24.317Z,101482.89
2023-04-17T22:38:29.718Z,101483.95
2023-04-17T22:43:36.380Z,101484.15
2023-04-17T22:48:45.201Z,101487.62
2023-04-17T22:53:50.957Z,101487.98
2023-04-17T22:58:56.518Z,101485.21
2023-04-17T23:04:01.921Z,101487.12
2023-04-17T23:09:07.607Z,101481.76
2023-04-17T23:14:13.410Z,101478.45
2023-04-17T23:19:21.198Z,101471.00
2023-04-17T23:24:26.668Z,101469.95
2023-04-17T23:29:32.070Z,101475.17
2023-04-17T23:34:37.907Z,101476.39
2023-04-17T23:39:43.712Z,101476.39
2023-04-17T23:44:49.337Z,101471.52
2023-04-17T23:49:54.715Z,101472.73
2023-04-17T23:55:00.099Z,101474.28
